createdAt,value
2019-02-16T05:00:17.250Z,19.93
2019-02-16T05:02:39.779Z,19.30
2019-02-16T05:05:03.504Z,20.70
2019-02-16T05:07:25.922Z,20.07
2019-02-16T05:09:48.339Z,20.13
2019-02-16T05:12:10.770Z,17.50
2019-02-16T05:14:33.195Z,19.83
2019-02-16T06:02:22.415Z,25.10
2019-02-16T06:04:57.785Z,31.80
2019-02-16T06:07:32.899Z,24.90
2019-02-16T06:10:08.099Z,23.90
2019-02-16T06:12:44.387Z,21.43
2019-02-16T07:00:20.576Z,22.65
2019-02-16T07:02:42.999Z,25.20
2019-02-16T07:05:05.666Z,21.83
2019-02-16T07:07:28.071Z,24.83
2019-02-16T07:10:03.547Z,21.17
2019-02-16T07:12:38.667Z,22.10
2019-02-16T08:03:00.671Z,19.50
2019-02-16T08:05:42.607Z,19.00
2019-02-16T08:08:43.975Z,18.47
2019-02-16T08:11:38.210Z,20.17
2019-02-16T08:14:16.572Z,18.30
2019-02-16T09:01:40.578Z,15.35
2019-02-16T09:04:23.614Z,15.88
2019-02-16T09:07:04.681Z,17.90
2019-02-16T09:09:45.393Z,17.35
2019-02-16T09:12:33.394Z,16.80
2019-02-16T10:02:42.167Z,10.95
2019-02-16T10:05:33.080Z,10.55
2019-02-16T10:08:12.758Z,11.40
2019-02-16T10:10:53.493Z,11.00
2019-02-16T10:13:38.427Z,9.98
2019-02-16T11:01:43.007Z,13.10
2019-02-16T11:04:23.715Z,13.30
2019-02-16T11:07:00.530Z,16.45
2019-02-16T11:09:38.818Z,15.90
2019-02-16T11:12:39.306Z,12.93
2019-02-16T15:02:39.075Z,7.57
2019-02-16T15:05:14.304Z,7.93
2019-02-16T15:07:50.368Z,8.93
2019-02-16T15:10:26.785Z,6.50
2019-02-16T15:13:02.432Z,7.03
2019-02-16T16:02:47.395Z,14.07
2019-02-16T16:05:22.223Z,10.37
2019-02-16T16:08:16.696Z,13.80
2019-02-16T16:11:03.634Z,13.37
2019-02-16T16:13:47.303Z,12.37
2019-02-16T17:02:24.182Z,26.37
2019-02-16T17:05:09.870Z,29.33
2019-02-16T17:08:07.316Z,27.53
2019-02-16T17:11:04.443Z,22.50
2019-02-16T17:13:58.392Z,23.37
2019-02-16T18:00:35.851Z,34.00
2019-02-16T18:03:25.634Z,36.57
2019-02-16T18:06:26.284Z,30.97
2019-02-16T18:09:20.405Z,36.03
2019-02-16T18:12:15.370Z,33.73
2019-02-16T19:05:28.962Z,46.63
2019-02-16T19:08:28.015Z,49.40
2019-02-16T19:11:22.444Z,46.70
2019-02-16T19:14:16.779Z,49.17
2019-02-16T20:00:43.309Z,45.13
2019-02-16T20:03:44.721Z,45.77
2019-02-16T20:06:26.711Z,46.43
2019-02-16T20:09:21.473Z,53.00
2019-02-16T20:12:06.135Z,51.60
2019-02-16T20:14:56.690Z,48.67
2019-02-16T21:01:45.278Z,48.93
2019-02-16T21:04:27.211Z,54.10
2019-02-16T21:07:28.752Z,47.93
2019-02-16T21:10:23.634Z,49.60
2019-02-16T21:13:07.243Z,46.47
